Search for airport 
image banner adimage banner adimage banner ad
image banner ad

0CL5 - The Atrium

Located in Irvine, United States

ICAO - 0CL5, IATA -

Data provided by Airmate  

General information

Coordinates: N33°40'14" W117°51'28"
Elevation is 46 feet MSL.
Magnetic variation is 14° East
View others Airports in California

Operational data

Special qualification required
Current time UTC:
Current local time:
METAR: KSNA 141153Z AUTO 23003KT 9SM CLR 17/14 A2988 RMK AO2 SLP118 T01720144 10194 20172 58007
TAF: KSNA 141129Z 1412/1512 VRB04KT P6SM FEW008 FEW200 TEMPO 1412/1415 BKN007 FM141800 23008KT P6SM FEW200 FM150300 VRB04KT P6SM FEW200
View NOTAMs / SUP AIP / TFR affecting this airport [VIEW]
Communications frequencies: [VIEW]

Runways:

Airport contact information

Address: Irvine United States

Satellite view of 0CL5